Time;durP1;ratioP1;P1;durP2;ratioP2;P2;SDS_P1;SDS_P2;PMS_P1;PMS_P2;Temp;Humidity;BMP_temperature;BMP_pressure;BME280_temperature;BME280_humidity;BME280_pressure;Samples;Min_cycle;Max_cycle;Signal;HPM_P1;HPM_P2
2021/01/22 00:02:21;;;;;;;10.50;3.63;;;8.10;91.00;;;;;;5052170;28;20051;-82
2021/01/22 00:04:47;;;;;;;9.07;3.42;;;8.10;91.20;;;;;;5051541;28;20040;-82
2021/01/22 00:07:14;;;;;;;8.63;3.55;;;8.10;90.90;;;;;;5052259;28;20120;-82
2021/01/22 00:09:40;;;;;;;7.45;2.95;;;8.10;90.80;;;;;;5052028;28;20025;-81
2021/01/22 00:12:06;;;;;;;7.50;3.20;;;8.20;91.00;;;;;;5051875;28;20025;-81
2021/01/22 00:14:32;;;;;;;6.15;2.35;;;8.10;90.90;;;;;;5032079;28;20025;-82
2021/01/22 00:16:58;;;;;;;6.25;2.63;;;8.10;90.80;;;;;;5029219;28;20036;-83
2021/01/22 00:19:24;;;;;;;6.80;2.78;;;8.10;90.90;;;;;;5035296;28;20055;-83
2021/01/22 00:21:50;;;;;;;5.97;2.55;;;8.10;90.90;;;;;;5051995;28;20112;-82
2021/01/22 00:24:15;;;;;;;9.15;2.70;;;8.10;91.00;;;;;;5035034;28;20029;-82
2021/01/22 00:26:41;;;;;;;5.68;2.33;;;8.10;91.00;;;;;;5035244;28;20035;-82
2021/01/22 00:29:06;;;;;;;5.38;2.50;;;8.20;90.90;;;;;;5035211;28;20041;-82
2021/01/22 00:31:32;;;;;;;6.32;2.63;;;8.10;90.70;;;;;;5035170;28;20028;-82
2021/01/22 00:33:58;;;;;;;6.18;2.78;;;8.00;90.60;;;;;;5034874;28;20113;-82
2021/01/22 00:36:24;;;;;;;6.50;2.60;;;7.90;90.50;;;;;;5026956;28;20028;-82
2021/01/22 00:38:49;;;;;;;7.93;2.85;;;7.90;90.60;;;;;;5067543;28;20075;-82
2021/01/22 00:41:15;;;;;;;6.60;2.65;;;7.80;90.60;;;;;;5051471;28;20393;-82
2021/01/22 00:43:41;;;;;;;6.30;3.00;;;7.70;90.60;;;;;;5051603;28;20049;-82
2021/01/22 00:46:06;;;;;;;5.70;2.50;;;7.70;90.70;;;;;;5051690;28;20072;-82
2021/01/22 00:48:32;;;;;;;6.55;2.70;;;7.70;90.80;;;;;;5035137;28;20032;-82
2021/01/22 00:51:01;;;;;;;6.43;2.33;;;7.80;90.90;;;;;;5034608;28;20064;-82
2021/01/22 00:53:26;;;;;;;7.32;2.97;;;7.80;91.10;;;;;;5034896;28;20078;-82
2021/01/22 00:55:52;;;;;;;7.47;2.63;;;7.80;91.00;;;;;;5034834;28;20037;-82
2021/01/22 00:58:18;;;;;;;6.75;2.63;;;7.90;91.20;;;;;;5034542;28;20021;-81
2021/01/22 01:00:43;;;;;;;9.02;2.22;;;7.90;91.10;;;;;;5034364;28;20021;-81
2021/01/22 01:03:09;;;;;;;4.57;2.10;;;7.90;91.10;;;;;;5034658;28;20029;-81
2021/01/22 01:05:37;;;;;;;4.75;2.25;;;8.00;91.40;;;;;;5034852;28;20596;-81
2021/01/22 01:08:04;;;;;;;5.30;2.13;;;8.00;91.20;;;;;;5052364;28;20029;-81
2021/01/22 01:10:30;;;;;;;5.45;2.20;;;8.10;91.10;;;;;;5034675;28;20040;-82
2021/01/22 01:12:56;;;;;;;3.53;1.90;;;8.10;91.10;;;;;;5034010;28;20129;-82
2021/01/22 01:15:21;;;;;;;3.85;1.95;;;8.10;91.10;;;;;;5034467;28;20040;-82
2021/01/22 01:17:47;;;;;;;4.22;2.08;;;8.10;91.00;;;;;;5034713;28;20020;-82
2021/01/22 01:20:13;;;;;;;4.93;2.10;;;8.20;91.00;;;;;;5052421;28;20537;-82
2021/01/22 01:22:38;;;;;;;4.43;2.00;;;8.10;90.90;;;;;;5050909;28;20056;-81
2021/01/22 01:25:05;;;;;;;4.65;2.13;;;8.10;90.90;;;;;;5034442;28;20118;-81
2021/01/22 01:27:31;;;;;;;4.00;1.83;;;8.00;90.80;;;;;;5051151;28;20024;-82
2021/01/22 01:29:56;;;;;;;3.33;1.85;;;8.00;90.80;;;;;;5034033;28;20064;-82
2021/01/22 01:32:22;;;;;;;4.50;1.73;;;8.00;90.80;;;;;;5050794;28;20052;-81
2021/01/22 01:34:47;;;;;;;6.68;1.73;;;7.90;90.70;;;;;;5034039;28;20029;-82
2021/01/22 01:37:13;;;;;;;3.03;1.80;;;7.90;90.70;;;;;;5050608;28;20033;-82
2021/01/22 01:39:39;;;;;;;3.38;1.83;;;7.90;90.70;;;;;;5045868;28;20045;-81
2021/01/22 01:42:05;;;;;;;3.13;1.70;;;7.80;90.60;;;;;;5050545;28;20064;-81
2021/01/22 01:44:30;;;;;;;3.45;1.70;;;7.70;90.60;;;;;;5034275;28;20059;-81
2021/01/22 01:46:56;;;;;;;2.97;1.50;;;7.70;90.70;;;;;;5050789;28;20151;-81
2021/01/22 01:49:22;;;;;;;2.85;1.52;;;7.70;90.90;;;;;;5033717;28;20057;-81
2021/01/22 01:51:48;;;;;;;1.73;1.15;;;7.80;91.10;;;;;;5033808;28;20029;-81
2021/01/22 01:54:14;;;;;;;5.47;1.70;;;7.80;91.20;;;;;;5034195;28;20079;-81
2021/01/22 01:56:40;;;;;;;3.78;1.65;;;7.90;91.30;;;;;;5051069;28;20457;-81
2021/01/22 01:59:06;;;;;;;3.10;1.63;;;8.10;91.60;;;;;;5068538;28;20112;-81
2021/01/22 02:01:39;;;;;;;3.25;1.55;;;8.20;91.60;;;;;;5057187;28;20059;-82
2021/01/22 02:04:04;;;;;;;3.38;1.67;;;8.30;91.50;;;;;;5053129;28;20485;-82
2021/01/22 02:06:30;;;;;;;4.05;1.65;;;8.40;91.50;;;;;;5050918;28;20065;-80
2021/01/22 02:08:57;;;;;;;4.43;1.95;;;8.50;91.50;;;;;;5033598;28;20059;-81
2021/01/22 02:11:24;;;;;;;4.47;1.42;;;8.60;91.60;;;;;;5051897;28;20029;-80
2021/01/22 02:13:50;;;;;;;2.72;1.50;;;8.70;91.50;;;;;;5054034;28;20029;-81
2021/01/22 02:16:16;;;;;;;2.78;1.52;;;8.70;91.30;;;;;;5050463;28;20427;-81
2021/01/22 02:18:45;;;;;;;4.32;1.85;;;8.80;91.40;;;;;;5038124;28;20021;-83
2021/01/22 02:21:23;;;;;;;4.05;1.75;;;8.80;91.30;;;;;;5054534;28;20591;-82
2021/01/22 02:23:50;;;;;;;2.90;1.38;;;8.90;91.10;;;;;;5054554;28;20060;-82
2021/01/22 02:26:28;;;;;;;3.13;1.55;;;8.90;91.30;;;;;;5053276;28;20028;-82
2021/01/22 02:29:02;;;;;;;1.98;1.20;;;8.90;91.40;;;;;;5054361;28;20048;-82
2021/01/22 02:31:30;;;;;;;1.85;1.05;;;9.10;91.40;;;;;;5053774;28;20021;-82
2021/01/22 02:34:01;;;;;;;2.15;1.30;;;9.10;91.30;;;;;;5047625;28;20110;-82
2021/01/22 02:36:27;;;;;;;3.15;1.38;;;9.20;91.20;;;;;;5054260;28;20078;-82
2021/01/22 02:38:55;;;;;;;1.80;1.35;;;9.10;91.10;;;;;;5048904;28;20473;-82
2021/01/22 02:41:21;;;;;;;3.28;1.60;;;9.10;90.90;;;;;;5055072;28;20560;-82
2021/01/22 02:43:56;;;;;;;4.40;1.35;;;9.00;90.80;;;;;;5037207;28;20025;-82
2021/01/22 02:46:22;;;;;;;4.00;1.40;;;9.00;91.00;;;;;;5050898;28;20504;-82
2021/01/22 02:48:49;;;;;;;3.47;1.75;;;9.00;91.00;;;;;;5053399;28;20036;-82
2021/01/22 02:51:15;;;;;;;3.05;1.63;;;9.00;90.90;;;;;;5054718;28;20547;-81
2021/01/22 02:53:41;;;;;;;3.63;1.80;;;9.00;90.80;;;;;;5053752;28;20025;-81
2021/01/22 02:56:35;;;;;;;3.95;1.80;;;9.00;90.90;;;;;;5036924;28;20075;-81
2021/01/22 02:59:47;;;;;;;4.45;1.75;;;8.90;90.70;;;;;;5053453;28;20453;-81
2021/01/22 03:02:28;;;;;;;3.92;1.70;;;8.90;90.80;;;;;;5027092;28;20374;-81
2021/01/22 03:04:58;;;;;;;3.17;1.40;;;8.90;90.90;;;;;;5050961;28;20021;-81
2021/01/22 03:07:33;;;;;;;3.15;1.65;;;8.80;90.80;;;;;;5053673;28;20110;-81
2021/01/22 03:10:00;;;;;;;2.67;1.30;;;8.80;90.80;;;;;;5053359;28;20033;-81
2021/01/22 03:12:27;;;;;;;3.78;1.60;;;8.80;90.80;;;;;;5052847;28;20025;-81
2021/01/22 03:14:54;;;;;;;4.70;1.77;;;8.80;90.90;;;;;;5053323;28;20032;-82
2021/01/22 03:17:20;;;;;;;3.60;1.73;;;8.90;90.80;;;;;;5053194;28;20057;-83
2021/01/22 03:19:47;;;;;;;3.15;1.67;;;8.80;90.80;;;;;;5036641;28;20078;-83
2021/01/22 03:22:13;;;;;;;3.08;1.65;;;8.80;90.90;;;;;;5036433;28;20423;-82
2021/01/22 03:24:39;;;;;;;3.97;1.60;;;8.80;90.90;;;;;;5036562;28;20079;-82
2021/01/22 03:27:05;;;;;;;4.07;1.77;;;8.90;91.00;;;;;;5052975;28;20124;-83
2021/01/22 03:29:31;;;;;;;1.52;1.17;;;8.90;90.90;;;;;;5036042;28;20083;-83
2021/01/22 03:31:58;;;;;;;1.45;1.35;;;8.90;91.10;;;;;;5036546;28;20029;-83
2021/01/22 03:34:26;;;;;;;2.28;1.27;;;9.00;91.10;;;;;;5052796;28;20017;-81
2021/01/22 03:36:54;;;;;;;1.65;1.25;;;9.00;91.10;;;;;;5053853;28;20104;-81
2021/01/22 03:39:20;;;;;;;3.38;1.50;;;9.00;91.00;;;;;;5049545;28;20031;-82
2021/01/22 03:41:45;;;;;;;3.25;1.40;;;9.00;90.80;;;;;;5052826;28;20523;-82
2021/01/22 03:44:11;;;;;;;5.35;1.50;;;9.00;91.00;;;;;;5019747;28;20029;-82
2021/01/22 03:46:37;;;;;;;1.48;1.15;;;9.00;90.80;;;;;;5052832;28;20458;-80
2021/01/22 03:49:05;;;;;;;1.13;1.02;;;8.90;90.80;;;;;;5052178;28;20401;-83
2021/01/22 03:51:31;;;;;;;4.30;1.40;;;8.90;90.80;;;;;;5052465;28;20029;-83
2021/01/22 03:53:56;;;;;;;3.08;1.60;;;9.00;90.80;;;;;;5035993;28;20029;-83
2021/01/22 03:56:22;;;;;;;2.85;1.38;;;8.90;90.80;;;;;;5035659;28;20074;-83
2021/01/22 03:58:48;;;;;;;6.30;1.67;;;8.90;90.70;;;;;;5035994;28;20385;-83
2021/01/22 04:01:13;;;;;;;2.78;1.38;;;8.90;90.70;;;;;;5035881;28;20496;-83
2021/01/22 04:03:41;;;;;;;3.17;1.33;;;8.90;90.70;;;;;;5035480;28;20021;-81
2021/01/22 04:06:07;;;;;;;1.27;1.13;;;8.90;90.80;;;;;;5031894;28;20017;-81
2021/01/22 04:08:33;;;;;;;2.00;1.27;;;8.90;90.80;;;;;;5035761;28;20033;-82
2021/01/22 04:10:58;;;;;;;1.48;1.20;;;8.80;90.70;;;;;;5053430;28;20484;-82
2021/01/22 04:13:24;;;;;;;1.30;0.80;;;8.90;90.80;;;;;;5036059;28;20017;-82
2021/01/22 04:15:49;;;;;;;3.50;1.33;;;8.90;90.60;;;;;;5052302;28;20056;-82
2021/01/22 04:18:15;;;;;;;1.67;1.15;;;8.80;90.70;;;;;;5035342;28;20021;-82
2021/01/22 04:20:41;;;;;;;2.88;1.40;;;8.70;90.60;;;;;;5052035;28;20025;-82
2021/01/22 04:23:06;;;;;;;2.95;1.40;;;8.70;90.60;;;;;;5035340;28;20495;-81
2021/01/22 04:25:32;;;;;;;2.28;1.25;;;8.70;90.60;;;;;;5052891;28;20112;-81
2021/01/22 04:27:57;;;;;;;1.90;1.23;;;8.70;90.70;;;;;;5035162;28;20025;-82
2021/01/22 04:30:23;;;;;;;4.90;1.50;;;8.70;90.70;;;;;;5052161;28;20120;-81
2021/01/22 04:32:48;;;;;;;3.22;1.23;;;8.70;90.70;;;;;;5034839;28;20453;-82
2021/01/22 04:35:15;;;;;;;3.75;1.25;;;8.70;90.80;;;;;;5034725;28;20511;-82
2021/01/22 04:37:42;;;;;;;3.58;1.40;;;8.70;90.70;;;;;;5034369;28;20109;-82
2021/01/22 04:40:09;;;;;;;2.63;1.30;;;8.60;90.60;;;;;;5035148;28;20051;-82
2021/01/22 04:42:39;;;;;;;2.67;1.40;;;8.70;90.80;;;;;;5035101;28;20098;-82
2021/01/22 04:45:10;;;;;;;2.25;0.90;;;8.60;90.70;;;;;;5048789;28;20025;-82
2021/01/22 04:47:40;;;;;;;3.50;2.13;;;8.70;90.80;;;;;;5057576;28;20032;-81
2021/01/22 04:50:07;;;;;;;2.38;1.30;;;8.70;90.80;;;;;;5052388;28;20050;-81
2021/01/22 04:52:35;;;;;;;0.88;0.77;;;8.70;90.80;;;;;;5051445;28;20442;-82
2021/01/22 04:55:03;;;;;;;2.60;1.42;;;8.70;90.70;;;;;;5050957;28;20025;-82
2021/01/22 04:57:31;;;;;;;2.85;1.08;;;8.70;90.70;;;;;;5052489;28;20013;-82
2021/01/22 04:59:58;;;;;;;1.08;0.98;;;8.60;90.60;;;;;;5034380;28;20021;-81
2021/01/22 05:02:23;;;;;;;2.13;1.20;;;8.70;90.70;;;;;;5052426;28;20043;-82
2021/01/22 05:04:49;;;;;;;3.42;1.90;;;8.60;90.60;;;;;;5051283;28;20548;-81
2021/01/22 05:07:15;;;;;;;3.92;1.67;;;8.70;90.90;;;;;;5034423;28;20029;-81
2021/01/22 05:09:44;;;;;;;4.30;2.10;;;8.60;90.50;;;;;;5051798;28;20021;-82
2021/01/22 05:12:10;;;;;;;6.78;2.80;;;8.60;90.60;;;;;;5046335;28;20021;-82
2021/01/22 05:14:36;;;;;;;2.17;1.10;;;8.60;90.60;;;;;;5051044;28;20035;-82
2021/01/22 05:17:03;;;;;;;1.13;0.85;;;8.60;90.60;;;;;;5051048;28;20048;-82
2021/01/22 05:19:29;;;;;;;3.47;1.30;;;8.60;90.60;;;;;;5050918;28;20021;-81
2021/01/22 05:21:55;;;;;;;3.65;1.27;;;8.50;90.60;;;;;;5050934;28;20455;-82
2021/01/22 05:24:22;;;;;;;2.78;1.40;;;8.50;90.50;;;;;;5052222;28;20108;-82
2021/01/22 05:26:57;;;;;;;1.38;1.15;;;8.50;90.50;;;;;;5050644;28;20029;-82
2021/01/22 05:29:22;;;;;;;1.80;1.10;;;8.50;90.60;;;;;;5049157;28;20461;-81
2021/01/22 05:31:48;;;;;;;1.30;1.20;;;8.50;90.60;;;;;;5034036;28;20068;-81
2021/01/22 05:34:13;;;;;;;5.47;1.25;;;8.40;90.50;;;;;;5034370;28;20082;-81
2021/01/22 05:36:39;;;;;;;3.63;1.40;;;8.40;90.50;;;;;;5034441;28;20033;-82
2021/01/22 05:39:05;;;;;;;2.03;1.02;;;8.40;90.50;;;;;;5047619;28;20115;-83
2021/01/22 05:41:31;;;;;;;1.17;0.80;;;8.40;90.50;;;;;;5050854;28;20025;-84
2021/01/22 05:43:57;;;;;;;1.52;1.13;;;8.30;90.50;;;;;;5034004;28;20017;-83
2021/01/22 05:46:27;;;;;;;1.67;1.45;;;8.30;90.50;;;;;;5051938;28;20025;-82
2021/01/22 05:49:13;;;;;;;4.68;1.17;;;8.30;90.50;;;;;;5050390;28;20103;-83
2021/01/22 05:51:39;;;;;;;4.80;1.38;;;8.30;90.60;;;;;;5045750;28;20124;-83
2021/01/22 05:54:08;;;;;;;5.72;1.75;;;8.30;90.50;;;;;;5034115;28;20052;-82
2021/01/22 05:56:34;;;;;;;1.92;1.00;;;8.30;90.50;;;;;;5033847;28;20064;-81
2021/01/22 05:59:14;;;;;;;2.33;1.45;;;8.30;90.60;;;;;;5050519;28;20053;-81
2021/01/22 06:01:42;;;;;;;2.58;1.20;;;8.20;90.50;;;;;;5045513;28;20079;-81
2021/01/22 06:04:09;;;;;;;1.73;1.30;;;8.10;90.60;;;;;;5051715;28;20100;-81
2021/01/22 06:06:34;;;;;;;2.63;1.20;;;8.30;90.70;;;;;;5033696;28;20078;-82
2021/01/22 06:09:00;;;;;;;2.88;1.20;;;8.30;90.70;;;;;;5050629;28;20404;-80
2021/01/22 06:11:28;;;;;;;2.60;1.13;;;8.30;90.70;;;;;;5050247;28;20033;-80
2021/01/22 06:13:55;;;;;;;2.47;1.15;;;8.30;90.70;;;;;;5049998;28;20512;-81
2021/01/22 06:16:25;;;;;;;2.97;1.35;;;8.30;90.70;;;;;;5050997;28;20033;-82
2021/01/22 06:19:02;;;;;;;3.53;1.30;;;8.40;90.90;;;;;;5051121;28;20021;-82
2021/01/22 06:21:32;;;;;;;1.63;0.98;;;8.50;90.90;;;;;;5050461;28;20083;-83
2021/01/22 06:24:00;;;;;;;0.70;0.70;;;8.50;90.90;;;;;;5050576;28;20019;-83
2021/01/22 06:26:26;;;;;;;1.45;1.00;;;8.60;91.00;;;;;;5050244;28;20025;-83
2021/01/22 06:28:52;;;;;;;2.17;1.08;;;8.60;91.00;;;;;;5051680;28;20043;-83
2021/01/22 06:31:19;;;;;;;6.57;1.48;;;8.60;90.90;;;;;;5050184;28;20536;-84
2021/01/22 06:33:46;;;;;;;0.75;0.73;;;8.70;90.90;;;;;;5050203;28;20078;-84
2021/01/22 06:36:13;;;;;;;5.10;1.17;;;8.70;90.90;;;;;;5050353;28;20025;-84
2021/01/22 06:38:42;;;;;;;1.27;0.90;;;8.70;90.80;;;;;;5043472;28;20049;-83
2021/01/22 06:41:09;;;;;;;3.33;1.33;;;8.70;90.80;;;;;;5050477;28;20021;-83
2021/01/22 06:43:40;;;;;;;0.93;0.80;;;8.80;90.70;;;;;;5050189;28;20044;-83
2021/01/22 06:46:09;;;;;;;4.50;1.05;;;8.70;90.70;;;;;;5033385;28;20130;-83
2021/01/22 06:49:05;;;;;;;1.35;0.90;;;8.60;90.60;;;;;;5042191;28;20036;-83
2021/01/22 06:51:33;;;;;;;1.50;0.90;;;8.60;90.60;;;;;;5037320;28;20563;-83
2021/01/22 06:54:10;;;;;;;1.02;0.90;;;8.70;90.70;;;;;;5050261;28;20040;-84
2021/01/22 06:56:38;;;;;;;1.90;1.13;;;8.70;90.60;;;;;;5049885;28;20063;-84
2021/01/22 06:59:20;;;;;;;3.80;1.25;;;8.70;90.70;;;;;;5053646;28;20017;-83
2021/01/22 07:01:46;;;;;;;1.15;0.75;;;8.70;90.60;;;;;;5053462;28;20025;-84
2021/01/22 07:04:41;;;;;;;1.45;1.00;;;8.70;90.60;;;;;;5053150;28;20025;-85
2021/01/22 07:07:08;;;;;;;1.10;0.70;;;8.60;90.50;;;;;;5042081;28;20033;-85
2021/01/22 07:09:44;;;;;;;2.03;1.00;;;8.60;90.50;;;;;;5053452;28;20037;-86
2021/01/22 07:12:11;;;;;;;0.82;0.82;;;8.60;90.60;;;;;;5054940;28;20017;-85
2021/01/22 07:14:42;;;;;;;0.93;0.73;;;8.70;90.70;;;;;;5042258;28;20052;-84
2021/01/22 07:17:29;;;;;;;2.47;0.85;;;8.60;90.70;;;;;;5053628;28;20021;-82
2021/01/22 07:20:04;;;;;;;2.15;0.90;;;8.70;90.90;;;;;;5048758;28;20032;-92
2021/01/22 07:22:31;;;;;;;0.60;0.40;;;8.80;90.90;;;;;;5056046;28;20358;-93
2021/01/22 07:25:19;;;;;;;2.13;1.05;;;8.90;90.90;;;;;;5055231;28;20021;-88
2021/01/22 07:27:44;;;;;;;2.10;1.00;;;8.90;90.80;;;;;;5050540;28;20033;-91
2021/01/22 07:30:17;;;;;;;2.88;1.17;;;9.00;90.90;;;;;;5038667;28;20514;-88
2021/01/22 07:32:45;;;;;;;1.88;1.10;;;9.10;90.90;;;;;;5053656;28;20379;-86
2021/01/22 07:35:22;;;;;;;2.63;0.80;;;9.10;90.90;;;;;;5053338;28;20025;-88
2021/01/22 07:37:49;;;;;;;1.45;0.90;;;9.20;90.90;;;;;;5052366;28;20086;-91
2021/01/22 07:40:20;;;;;;;1.58;0.85;;;9.20;90.80;;;;;;5056264;28;20059;-93
2021/01/22 07:42:47;;;;;;;3.75;1.23;;;9.30;90.80;;;;;;5050077;28;20053;-93
2021/01/22 07:45:18;;;;;;;2.65;0.73;;;9.40;90.80;;;;;;5048560;28;20017;-92
2021/01/22 07:47:48;;;;;;;1.60;1.00;;;9.40;90.70;;;;;;5055277;28;21044;-88
2021/01/22 07:50:23;;;;;;;1.75;0.77;;;9.40;90.70;;;;;;5057690;28;20046;-89
2021/01/22 07:52:50;;;;;;;1.08;0.70;;;9.40;90.70;;;;;;5043891;28;20048;-90
2021/01/22 07:55:21;;;;;;;1.67;0.95;;;9.50;90.80;;;;;;5048670;28;20028;-89
2021/01/22 07:58:02;;;;;;;0.60;0.60;;;9.60;90.80;;;;;;5053961;28;20021;-88
2021/01/22 08:00:44;;;;;;;0.98;0.77;;;9.60;90.80;;;;;;5044529;28;20377;-89
2021/01/22 08:03:13;;;;;;;4.40;1.02;;;9.60;90.70;;;;;;5037172;28;20021;-88
2021/01/22 08:05:39;;;;;;;1.13;0.73;;;9.60;90.70;;;;;;5047775;28;20156;-88
2021/01/22 08:08:22;;;;;;;1.85;0.82;;;9.70;90.70;;;;;;5051654;28;20056;-88
2021/01/22 08:11:20;;;;;;;0.60;0.60;;;9.70;90.70;;;;;;5048365;28;20257;-88
2021/01/22 08:13:46;;;;;;;0.88;0.75;;;9.80;90.70;;;;;;5039930;28;20029;-88
2021/01/22 08:16:20;;;;;;;0.60;0.60;;;9.80;90.70;;;;;;5050824;28;20040;-89
2021/01/22 08:18:48;;;;;;;1.00;0.68;;;9.90;90.80;;;;;;5043230;28;20070;-89
2021/01/22 08:21:23;;;;;;;2.20;0.80;;;10.00;91.00;;;;;;5024061;28;20028;-88
2021/01/22 08:23:59;;;;;;;1.92;0.82;;;10.10;90.90;;;;;;5050992;28;20036;-89
2021/01/22 08:26:26;;;;;;;1.63;1.25;;;10.10;90.80;;;;;;5049067;28;20025;-89
2021/01/22 08:28:55;;;;;;;2.28;1.13;;;10.20;90.70;;;;;;5058649;28;20033;-88
2021/01/22 08:31:25;;;;;;;1.23;0.68;;;10.20;90.70;;;;;;5048914;28;20033;-88
2021/01/22 08:33:55;;;;;;;1.48;0.80;;;10.20;90.60;;;;;;5052292;28;20016;-90
2021/01/22 08:36:36;;;;;;;2.38;0.88;;;10.20;90.60;;;;;;5038599;28;20486;-89
2021/01/22 08:39:01;;;;;;;1.67;0.80;;;10.20;90.50;;;;;;5028299;28;20079;-89
2021/01/22 08:41:28;;;;;;;0.43;0.43;;;10.20;90.70;;;;;;5053380;28;20025;-89
2021/01/22 08:43:54;;;;;;;0.40;0.35;;;10.30;90.70;;;;;;5035943;28;20025;-90
2021/01/22 08:46:21;;;;;;;1.73;0.93;;;10.40;90.60;;;;;;5052430;28;20051;-90
2021/01/22 08:48:47;;;;;;;0.85;0.50;;;10.30;90.50;;;;;;5049480;28;20028;-90
2021/01/22 08:51:14;;;;;;;5.32;0.90;;;10.30;90.50;;;;;;5053952;28;20038;-90
2021/01/22 08:53:54;;;;;;;1.65;0.60;;;10.30;90.50;;;;;;5049364;28;20124;-90
2021/01/22 08:56:22;;;;;;;0.98;0.73;;;10.30;90.70;;;;;;5050228;28;20024;-91
2021/01/22 08:59:06;;;;;;;1.15;0.70;;;10.40;91.00;;;;;;5054458;28;20037;-89
2021/01/22 09:02:02;;;;;;;0.90;0.43;;;10.40;90.50;;;;;;5034016;28;20092;-88
2021/01/22 09:04:30;;;;;;;1.65;0.95;;;10.40;90.50;;;;;;5034073;28;20041;-90
2021/01/22 09:06:58;;;;;;;1.90;0.70;;;10.30;90.50;;;;;;5048091;28;20546;-92
2021/01/22 09:09:45;;;;;;;1.00;0.75;;;10.40;90.50;;;;;;5051746;28;20089;-92
2021/01/22 09:12:17;;;;;;;1.85;0.70;;;10.40;90.50;;;;;;5053183;28;20071;-91
2021/01/22 09:15:06;;;;;;;2.03;0.95;;;10.40;90.50;;;;;;5044719;28;20091;-91
2021/01/22 09:17:40;;;;;;;1.65;0.80;;;10.40;90.50;;;;;;5043713;28;20459;-91
2021/01/22 09:20:08;;;;;;;1.45;0.70;;;10.40;90.50;;;;;;5051925;28;20064;-91
2021/01/22 09:22:35;;;;;;;3.97;0.85;;;10.50;90.50;;;;;;5053367;28;20025;-90
2021/01/22 09:25:04;;;;;;;0.80;0.60;;;10.50;90.50;;;;;;5051598;28;20075;-90
2021/01/22 09:27:30;;;;;;;3.28;0.90;;;10.50;90.50;;;;;;5037356;28;20372;-91
2021/01/22 09:29:56;;;;;;;1.30;0.68;;;10.60;90.50;;;;;;5038216;28;20127;-89
2021/01/22 09:33:00;;;;;;;;;;;;;;;;;;;;;
2021/01/22 10:25:13;;;;;;;2.10;1.15;;;12.90;90.70;;;;;;5070920;23;20066;-88
2021/01/22 10:27:38;;;;;;;1.38;0.80;;;13.00;90.90;;;;;;4968827;28;20030;-85
2021/01/22 10:30:35;;;;;;;2.42;0.93;;;13.10;90.90;;;;;;4957356;28;20031;-85
2021/01/22 10:33:01;;;;;;;1.00;0.95;;;13.40;91.00;;;;;;4958533;28;20110;-81
2021/01/22 10:35:26;;;;;;;1.42;0.85;;;13.60;91.00;;;;;;4961479;28;20110;-82
2021/01/22 10:37:53;;;;;;;5.55;1.17;;;13.70;91.00;;;;;;4961080;28;20530;-84
2021/01/22 10:40:21;;;;;;;2.03;0.75;;;13.90;90.90;;;;;;4965322;28;20021;-83
2021/01/22 10:42:48;;;;;;;6.63;1.27;;;14.10;91.00;;;;;;4977403;28;20497;-82
2021/01/22 10:45:14;;;;;;;1.50;0.75;;;14.20;90.90;;;;;;4949121;28;20488;-82
2021/01/22 10:47:40;;;;;;;0.50;0.50;;;14.20;90.30;;;;;;4982211;28;20073;-82
2021/01/22 10:50:07;;;;;;;2.95;0.80;;;14.20;90.60;;;;;;4965513;28;20066;-82
2021/01/22 10:52:33;;;;;;;3.17;1.17;;;14.40;90.60;;;;;;4961584;28;20513;-83
2021/01/22 10:55:09;;;;;;;2.08;1.00;;;14.50;90.40;;;;;;4979854;28;20061;-83
2021/01/22 10:57:34;;;;;;;1.55;0.88;;;14.60;90.40;;;;;;4961209;28;20490;-82
2021/01/22 11:00:00;;;;;;;2.08;0.90;;;14.50;90.30;;;;;;4961468;28;20023;-82
2021/01/22 11:02:26;;;;;;;3.15;1.15;;;14.60;90.10;;;;;;4961185;28;20082;-82
2021/01/22 11:04:54;;;;;;;2.13;0.95;;;14.70;90.80;;;;;;4960736;28;20173;-82
2021/01/22 11:07:19;;;;;;;1.90;0.88;;;14.90;90.80;;;;;;4960519;28;20037;-84
2021/01/22 11:09:45;;;;;;;2.17;1.27;;;15.00;90.30;;;;;;4964475;28;20030;-83
2021/01/22 11:12:13;;;;;;;3.33;0.90;;;15.10;90.80;;;;;;4961057;28;20505;-82
2021/01/22 11:14:49;;;;;;;0.75;0.70;;;15.40;90.90;;;;;;4960414;28;20027;-84
2021/01/22 11:17:30;;;;;;;7.90;4.07;;;15.60;91.00;;;;;;4956571;28;20033;-83
2021/01/22 11:20:03;;;;;;;4.18;2.10;;;15.80;90.70;;;;;;4960216;28;20038;-83
2021/01/22 11:22:30;;;;;;;2.38;1.10;;;15.90;90.40;;;;;;4962544;28;20030;-83
2021/01/22 11:25:33;;;;;;;4.70;1.45;;;15.90;90.10;;;;;;4977562;28;20051;-83
2021/01/22 11:28:22;;;;;;;3.55;1.30;;;16.00;90.30;;;;;;4938537;28;20035;-84
2021/01/22 11:31:21;;;;;;;3.88;1.20;;;16.10;90.20;;;;;;4979410;28;20034;-83
2021/01/22 11:33:51;;;;;;;2.28;0.98;;;16.10;89.90;;;;;;4959114;28;20039;-83
2021/01/22 11:36:17;;;;;;;3.30;1.10;;;16.10;90.00;;;;;;4960538;28;20035;-83
2021/01/22 11:38:45;;;;;;;2.15;1.13;;;16.10;90.30;;;;;;4957802;28;20015;-83
2021/01/22 11:41:17;;;;;;;3.38;1.63;;;16.30;90.70;;;;;;4960559;28;21090;-83
2021/01/22 11:44:10;;;;;;;3.05;1.33;;;16.40;90.00;;;;;;4979246;28;20069;-84
2021/01/22 11:46:58;;;;;;;3.65;1.35;;;16.20;88.80;;;;;;4980239;28;20027;-83
2021/01/22 11:49:23;;;;;;;2.90;1.42;;;16.20;89.70;;;;;;4976259;28;20034;-83
2021/01/22 11:51:49;;;;;;;1.90;0.82;;;16.10;88.60;;;;;;4959840;28;20019;-84
2021/01/22 11:54:15;;;;;;;1.17;0.90;;;16.00;89.10;;;;;;4973143;28;20031;-85
2021/01/22 11:56:41;;;;;;;3.45;1.10;;;15.90;89.20;;;;;;4963643;28;20482;-85
2021/01/22 11:59:10;;;;;;;1.48;0.95;;;16.00;90.10;;;;;;4959859;28;20030;-84
2021/01/22 12:01:36;;;;;;;2.55;1.08;;;16.00;89.00;;;;;;4959885;28;20019;-85
2021/01/22 12:04:02;;;;;;;2.78;0.77;;;15.90;89.10;;;;;;4959521;28;20023;-85
2021/01/22 12:06:27;;;;;;;1.77;0.88;;;16.00;89.70;;;;;;4959680;28;20023;-85
2021/01/22 12:08:54;;;;;;;2.35;1.15;;;16.00;90.00;;;;;;4976372;28;20053;-84
2021/01/22 12:11:20;;;;;;;1.30;0.85;;;16.10;89.60;;;;;;4960764;28;20043;-84
2021/01/22 12:13:45;;;;;;;1.58;0.98;;;16.10;89.20;;;;;;4962971;28;20045;-85
2021/01/22 12:16:11;;;;;;;1.13;1.00;;;16.20;89.50;;;;;;4976036;28;20034;-84
2021/01/22 12:18:37;;;;;;;1.70;0.82;;;16.20;90.00;;;;;;4979626;28;20356;-84
2021/01/22 12:21:06;;;;;;;2.40;0.80;;;16.20;89.90;;;;;;4967515;28;20061;-92
2021/01/22 12:23:32;;;;;;;1.48;1.13;;;16.40;90.20;;;;;;4957409;28;20562;-86
2021/01/22 12:26:01;;;;;;;3.47;1.13;;;16.50;89.20;;;;;;4976550;28;20037;-87
2021/01/22 12:28:27;;;;;;;2.22;1.10;;;16.40;89.00;;;;;;4959619;28;20026;-87
2021/01/22 12:30:53;;;;;;;0.98;0.88;;;16.50;89.90;;;;;;4960580;28;20034;-88
2021/01/22 12:33:22;;;;;;;1.33;1.00;;;16.90;90.90;;;;;;4959446;28;20027;-90
2021/01/22 12:35:52;;;;;;;1.92;1.30;;;17.00;90.10;;;;;;4959885;28;20035;-91
2021/01/22 12:38:18;;;;;;;3.08;1.30;;;17.20;90.30;;;;;;4960405;28;20027;-92
2021/01/22 12:40:47;;;;;;;4.55;1.60;;;17.40;90.50;;;;;;4960319;28;20554;-91
2021/01/22 12:43:15;;;;;;;4.03;1.10;;;17.60;90.60;;;;;;4959250;28;20042;-87
2021/01/22 12:45:48;;;;;;;1.50;1.00;;;17.90;90.90;;;;;;4958749;28;20019;-87
2021/01/22 12:49:14;;;;;;;;;;;;;;;;;;;;;
2021/01/22 12:52:10;;;;;;;1.60;1.13;;;18.00;88.90;;;;;;4930276;29;20463;-89
2021/01/22 12:54:41;;;;;;;1.27;0.90;;;17.90;88.30;;;;;;4982073;28;20026;-90
2021/01/22 12:57:09;;;;;;;2.88;1.40;;;17.60;87.40;;;;;;4966155;28;20114;-88
2021/01/22 13:02:48;;;;;;;4.65;1.88;;;17.30;90.20;;;;;;4960723;28;20123;-91
2021/01/22 13:05:15;;;;;;;3.78;1.80;;;18.10;91.60;;;;;;4967434;28;20057;-80
2021/01/22 13:07:42;;;;;;;14.55;7.70;;;18.60;90.70;;;;;;4957912;28;20023;-81
2021/01/22 13:10:07;;;;;;;4.80;1.98;;;18.50;89.60;;;;;;4958137;28;20031;-92
2021/01/22 13:12:33;;;;;;;0.85;0.85;;;18.90;90.90;;;;;;4962279;28;20042;-85
2021/01/22 13:14:59;;;;;;;1.65;1.13;;;18.90;89.50;;;;;;4958236;28;20033;-85
2021/01/22 13:17:26;;;;;;;1.50;0.90;;;18.70;87.30;;;;;;4958336;28;20073;-85
2021/01/22 13:19:52;;;;;;;7.50;3.25;;;18.40;86.90;;;;;;4958354;28;20118;-86
2021/01/22 13:22:18;;;;;;;2.55;1.27;;;18.30;87.60;;;;;;4961235;28;20494;-85
2021/01/22 13:24:43;;;;;;;1.17;0.70;;;18.20;87.90;;;;;;4974165;28;20043;-85
2021/01/22 13:27:09;;;;;;;1.63;1.08;;;17.90;86.10;;;;;;4961575;28;20030;-85
2021/01/22 13:29:35;;;;;;;1.67;1.10;;;17.70;87.50;;;;;;4975373;28;20039;-85
2021/01/22 13:32:00;;;;;;;1.90;1.33;;;17.60;86.90;;;;;;4960140;28;20042;-85
2021/01/22 13:34:26;;;;;;;3.22;1.50;;;17.40;87.80;;;;;;4976029;28;20113;-85
2021/01/22 13:36:52;;;;;;;2.33;1.15;;;17.40;88.90;;;;;;4974534;28;20042;-85
2021/01/22 13:39:17;;;;;;;2.85;1.65;;;17.40;87.70;;;;;;4957951;28;20501;-85
2021/01/22 13:41:44;;;;;;;6.60;3.10;;;17.20;87.10;;;;;;4957924;28;20035;-85
2021/01/22 13:44:09;;;;;;;3.10;1.77;;;17.10;87.10;;;;;;4958029;28;20015;-85
2021/01/22 13:46:35;;;;;;;2.15;1.20;;;16.80;86.40;;;;;;4954024;28;20207;-85
2021/01/22 13:49:01;;;;;;;3.15;1.10;;;16.80;88.10;;;;;;4957709;28;20038;-85
2021/01/22 13:51:26;;;;;;;3.92;1.67;;;17.00;89.30;;;;;;4957726;28;20085;-85
2021/01/22 13:53:52;;;;;;;5.32;2.20;;;17.30;90.30;;;;;;4958035;28;20074;-85
2021/01/22 13:56:21;;;;;;;3.30;1.20;;;17.60;90.50;;;;;;4957301;28;20023;-85
2021/01/22 13:58:49;;;;;;;0.82;0.82;;;17.80;88.60;;;;;;4958023;28;20027;-85
2021/01/22 14:01:15;;;;;;;1.58;1.02;;;17.90;88.40;;;;;;4957850;28;20023;-85